메인 페이지
METAR-TAF:

METAR-TAF

공항 :

Double Eagle II Airport

앨버커키, 뉴멕시코, 미국

위도: 35-08-42N, 경도: 106-47-42W, 고도: 1779m

현재 날씨관측

예보는 31분 전, 22:50시(UTC)에 발표되었습니다.
온도 37°C
습도 6%
기압 1020 hPa
시정: 16.1km
맑음

METAR: KAEG 132250Z 1209G18KT 10SM CLR 37/M06 A3011

시각: 17:21 (23:21 UTC)

예보

예보는 5 시간 52분 전, 17:29시(UTC)에 발표되었습니다.
예보 대상 시간: 13일 18시부터 14일 18시까지 (UTC)
북서10kt, 순간 최대 풍속 16kt
시정: 10km
고도 12000ft 상공 구름 조금
13일 2000시부터 (UTC)
10kt, 순간 최대 풍속 15kt
시정: 10km
고도 15000ft 상공 구름 조금
14일 0600시부터 (UTC)
북서10kt
시정: 10km
고도 10000ft 상공 구름 보통
고도 15000ft 상공 구름 많음
14일 1700시부터 (UTC)
북서10kt, 순간 최대 풍속 20kt
시정: 10km
고도 10000ft 상공 구름 보통
고도 15000ft 상공 구름 많음

TAF: KAEG 131729Z 1318/1418 32010G16KT P6SM FEW120 FM132000 28010G15KT P6SM FEW150 FM140600 31010KT P6SM SCT100 BKN150 FM141700 32010G20KT P6SM SCT100 BKN150

4,000개 이상의 공항 관측 자료 및 예보 (METAR 및 TAF 보고).

지도상에서 검색 가능한 기상관측소가 노란 점과 빨간 점으로 표시되어 있습니다.

기상관측소 명을 보려면 표시 위로 마우스를 이동하세요.

날씨 관측과 예보를 보려면 클릭하세요.

지도 변경 : 확대하려면 엑스 표시가 있는 녹색 버튼, 축소하려면 빼기 표시가 있는 녹색 버튼, 다음 페이지의 지도를 보려면 녹색 화살표를 클릭하세요.


METAR-TAF: